Time;durP1;ratioP1;P1;durP2;ratioP2;P2;SDS_P1;SDS_P2;PMS_P1;PMS_P2;Temp;Humidity;BMP_temperature;BMP_pressure;BME280_temperature;BME280_humidity;BME280_pressure;Samples;Min_cycle;Max_cycle;Signal;HPM_P1;HPM_P2
2022/01/17 00:02:30;;;;;;;;;;;;;;;22.85;32.93;101275.40;104732;1306;75712;-82
2022/01/17 00:04:56;;;;;;;;;;;;;;;22.85;32.97;101273.60;104736;1306;61265;-82
2022/01/17 00:07:33;;;;;;;;;;;;;;;22.85;33.03;101267.52;104621;1306;61186;-83
2022/01/17 00:09:58;;;;;;;;;;;;;;;22.85;33.11;101272.02;104656;1307;73989;-82
2022/01/17 00:12:34;;;;;;;;;;;;;;;22.85;32.93;101273.80;104560;1308;74889;-81
2022/01/17 00:15:00;;;;;;;;;;;;;;;22.85;33.13;101280.61;104700;1306;61213;-85
2022/01/17 00:17:36;;;;;;;;;;;;;;;22.85;32.99;101274.70;104682;1306;61361;-84
2022/01/17 00:20:11;;;;;;;;;;;;;;;22.85;33.08;101272.36;104700;1306;73859;-82
2022/01/17 00:22:38;;;;;;;;;;;;;;;22.85;33.00;101272.70;104659;1306;75730;-85
2022/01/17 00:25:04;;;;;;;;;;;;;;;22.85;33.01;101278.44;104776;1306;61184;-82
2022/01/17 00:27:31;;;;;;;;;;;;;;;22.85;32.95;101280.95;104645;1306;61275;-83
2022/01/17 00:30:08;;;;;;;;;;;;;;;22.85;33.08;101275.40;104607;1306;73918;-82
2022/01/17 00:32:43;;;;;;;;;;;;;;;22.86;32.90;101268.73;104548;1306;75783;-83
2022/01/17 00:35:21;;;;;;;;;;;;;;;22.85;33.06;101267.86;104776;1306;61241;-85
2022/01/17 00:37:50;;;;;;;;;;;;;;;22.85;32.96;101267.16;104673;1306;61590;-82
2022/01/17 00:40:25;;;;;;;;;;;;;;;22.86;32.97;101271.95;104648;1306;73680;-81
2022/01/17 00:42:52;;;;;;;;;;;;;;;22.86;32.93;101266.92;104789;1306;75499;-82
2022/01/17 00:45:26;;;;;;;;;;;;;;;22.85;33.05;101267.67;104669;1306;61274;-85
2022/01/17 00:47:55;;;;;;;;;;;;;;;22.85;32.98;101269.09;104678;1306;61105;-83
2022/01/17 00:50:28;;;;;;;;;;;;;;;22.85;32.95;101264.10;104767;1306;73970;-83
2022/01/17 00:53:07;;;;;;;;;;;;;;;;;;;;;
2022/01/17 00:55:42;;;;;;;;;;;;;;;22.86;33.09;101255.23;104521;1308;61302;-82
2022/01/17 00:58:15;;;;;;;;;;;;;;;22.85;33.07;101250.61;104751;1306;61758;-83
2022/01/17 01:00:41;;;;;;;;;;;;;;;22.86;33.07;101245.69;104633;1306;73083;-83
2022/01/17 01:03:10;;;;;;;;;;;;;;;22.86;32.98;101242.85;104674;1306;62982;-85
2022/01/17 01:05:39;;;;;;;;;;;;;;;22.86;32.97;101239.98;104645;1306;61204;-83
2022/01/17 01:08:12;;;;;;;;;;;;;;;22.85;32.88;101239.30;104607;1306;61215;-84
2022/01/17 01:10:40;;;;;;;;;;;;;;;22.86;32.95;101235.71;104647;1306;72652;-84
2022/01/17 01:13:06;;;;;;;;;;;;;;;22.86;33.09;101231.74;104753;1306;74803;-83
2022/01/17 01:29:54;;;;;;;;;;;;;;;22.86;32.95;101196.89;104317;1313;61161;-82
2022/01/17 01:32:34;;;;;;;;;;;;;;;22.86;33.03;101186.86;104141;1314;73156;-82
2022/01/17 01:35:12;;;;;;;;;;;;;;;;;;;;;
2022/01/17 01:37:49;;;;;;;;;;;;;;;22.86;32.94;101173.57;104253;1313;61536;-82
2022/01/17 01:40:20;;;;;;;;;;;;;;;22.86;33.05;101167.85;104234;1313;61280;-87
2022/01/17 01:42:55;;;;;;;;;;;;;;;22.87;33.04;101166.36;104288;1313;72789;-81
2022/01/17 01:45:32;;;;;;;;;;;;;;;22.87;32.97;101162.38;104319;1313;75239;-82
2022/01/17 01:48:11;;;;;;;;;;;;;;;22.87;33.01;101154.63;104265;1314;62457;-82
2022/01/17 01:51:01;;;;;;;;;;;;;;;22.88;33.09;101158.02;104329;1313;61625;-83
2022/01/17 01:53:34;;;;;;;;;;;;;;;22.87;32.99;101151.95;104431;1306;73111;-79
2022/01/17 01:56:08;;;;;;;;;;;;;;;22.88;33.06;101149.22;104669;1306;74759;-82
2022/01/17 01:58:34;;;;;;;;;;;;;;;22.88;33.00;101142.38;104632;1306;61356;-86
2022/01/17 02:01:08;;;;;;;;;;;;;;;22.88;32.98;101139.52;104644;1306;61359;-83
2022/01/17 02:03:39;;;;;;;;;;;;;;;22.88;32.89;101133.77;104786;1306;73029;-85
2022/01/17 02:06:24;;;;;;;;;;;;;;;;;;;;;
2022/01/17 02:09:02;;;;;;;;;;;;;;;22.88;33.02;101124.77;104683;1306;61173;-83
2022/01/17 02:11:37;;;;;;;;;;;;;;;22.89;33.00;101120.98;104646;1306;61177;-82
2022/01/17 02:14:05;;;;;;;;;;;;;;;22.88;33.04;101117.61;104665;1306;73186;-83
2022/01/17 02:16:40;;;;;;;;;;;;;;;22.88;33.05;101120.09;104765;1305;75965;-83
2022/01/17 02:19:30;;;;;;;;;;;;;;;22.88;32.99;101119.23;104663;1306;61196;-83
2022/01/17 02:22:07;;;;;;;;;;;;;;;22.88;32.97;101117.23;104728;1306;61691;-84
2022/01/17 02:24:49;;;;;;;;;;;;;;;22.88;33.05;101108.98;104732;1306;72793;-83
2022/01/17 02:27:34;;;;;;;;;;;;;;;22.88;32.96;101104.67;104627;1306;75917;-83
2022/01/17 02:30:09;;;;;;;;;;;;;;;22.89;32.99;101103.21;104786;1305;61211;-83
2022/01/17 02:32:43;;;;;;;;;;;;;;;22.88;32.93;101095.35;104804;1306;61150;-84
2022/01/17 02:35:18;;;;;;;;;;;;;;;22.89;32.96;101091.90;104767;1306;74059;-83
2022/01/17 02:37:47;;;;;;;;;;;;;;;22.88;32.92;101091.56;104587;1306;74906;-85
2022/01/17 02:40:14;;;;;;;;;;;;;;;22.89;32.96;101094.41;104644;1306;61166;-82
2022/01/17 02:42:46;;;;;;;;;;;;;;;22.89;33.08;101094.06;104639;1306;61430;-82
2022/01/17 02:46:24;;;;;;;;;;;;;;;22.88;32.94;101089.62;104651;1306;72820;-85
2022/01/17 02:48:29;;;;;;;;;;;;;;;22.88;33.00;101087.27;104744;1305;75242;-81
2022/01/17 02:51:11;;;;;;;;;;;;;;;22.89;33.04;101087.61;104489;1306;61304;-87
2022/01/17 02:53:40;;;;;;;;;;;;;;;22.89;33.03;101089.04;104589;1306;62390;-82
2022/01/17 02:56:12;;;;;;;;;;;;;;;22.88;32.92;101081.33;104460;1308;72882;-84
2022/01/17 02:58:49;;;;;;;;;;;;;;;;;;;;;
2022/01/17 03:01:41;;;;;;;;;;;;;;;22.89;33.06;101066.43;104640;1306;61272;-83
2022/01/17 03:04:15;;;;;;;;;;;;;;;22.89;32.94;101067.67;104573;1308;61450;-81
2022/01/17 03:06:57;;;;;;;;;;;;;;;22.89;32.96;101068.04;104556;1306;72732;-86
2022/01/17 03:10:01;;;;;;;;;;;;;;;22.89;33.11;101070.17;104798;1306;75077;-83
2022/01/17 03:12:27;;;;;;;;;;;;;;;22.89;32.89;101073.41;104697;1306;61305;-82
2022/01/17 03:15:02;;;;;;;;;;;;;;;22.89;33.05;101068.38;104556;1308;61375;-82
2022/01/17 03:17:53;;;;;;;;;;;;;;;22.89;32.80;101061.56;104601;1306;73142;-83
2022/01/17 03:20:24;;;;;;;;;;;;;;;22.89;32.97;101062.11;104639;1306;74713;-84
2022/01/17 03:22:53;;;;;;;;;;;;;;;22.89;33.04;101060.83;104629;1306;61292;-82
2022/01/17 03:25:21;;;;;;;;;;;;;;;22.89;32.98;101066.56;104664;1306;61310;-83
2022/01/17 03:27:50;;;;;;;;;;;;;;;22.89;32.88;101064.77;104567;1306;73661;-83
2022/01/17 03:30:16;;;;;;;;;;;;;;;22.89;32.97;101063.55;104786;1306;75681;-82
2022/01/17 03:32:57;;;;;;;;;;;;;;;22.89;33.03;101061.02;104555;1306;61304;-82
2022/01/17 03:35:39;;;;;;;;;;;;;;;22.89;32.81;101053.87;104785;1306;61122;-83
2022/01/17 03:38:05;;;;;;;;;;;;;;;22.89;32.87;101051.84;104540;1307;73875;-87
2022/01/17 03:40:39;;;;;;;;;;;;;;;22.89;32.95;101052.06;104640;1306;76589;-87
2022/01/17 03:43:10;;;;;;;;;;;;;;;22.89;32.96;101044.73;104636;1306;61150;-82
2022/01/17 03:45:39;;;;;;;;;;;;;;;22.89;32.96;101044.71;104751;1306;61245;-85
2022/01/17 03:48:04;;;;;;;;;;;;;;;22.89;32.97;101035.02;104763;1306;73744;-84
2022/01/17 03:50:37;;;;;;;;;;;;;;;22.88;32.96;101026.27;104790;1306;61386;-82
2022/01/17 03:53:03;;;;;;;;;;;;;;;22.88;32.93;101023.38;104650;1308;60522;-84
2022/01/17 03:55:28;;;;;;;;;;;;;;;22.88;32.94;101014.25;104684;1306;61295;-82
2022/01/17 03:58:03;;;;;;;;;;;;;;;22.87;32.99;101014.48;104631;1306;72944;-82
2022/01/17 04:00:40;;;;;;;;;;;;;;;22.88;33.02;101007.45;104753;1306;74935;-84
2022/01/17 04:03:06;;;;;;;;;;;;;;;22.88;32.86;101000.81;104766;1306;61277;-84
2022/01/17 04:05:51;;;;;;;;;;;;;;;22.87;32.97;100996.54;104645;1306;62022;-84
2022/01/17 04:08:20;;;;;;;;;;;;;;;22.88;33.00;101000.79;104640;1306;61288;-84
2022/01/17 04:10:46;;;;;;;;;;;;;;;22.87;33.07;101000.29;104644;1306;74690;-85
2022/01/17 04:13:14;;;;;;;;;;;;;;;22.87;32.97;100997.42;104621;1306;61313;-83
2022/01/17 04:15:40;;;;;;;;;;;;;;;22.88;33.05;101000.46;104629;1306;63026;-82
2022/01/17 04:18:29;;;;;;;;;;;;;;;22.87;32.96;100995.28;104622;1306;61283;-85
2022/01/17 04:20:57;;;;;;;;;;;;;;;22.87;32.76;100995.08;104325;1313;76081;-84
2022/01/17 04:23:33;;;;;;;;;;;;;;;22.88;33.01;100994.88;104292;1313;61167;-83
2022/01/17 04:26:02;;;;;;;;;;;;;;;22.87;32.98;100993.13;104306;1313;61192;-82
2022/01/17 04:28:31;;;;;;;;;;;;;;;22.88;32.93;100992.73;104279;1313;61259;-84
2022/01/17 04:31:09;;;;;;;;;;;;;;;22.87;32.81;100988.64;104302;1313;73642;-83
2022/01/17 04:33:46;;;;;;;;;;;;;;;22.88;32.89;100983.77;104239;1313;61189;-81
2022/01/17 04:36:12;;;;;;;;;;;;;;;22.88;32.98;100979.46;104325;1313;61883;-82
2022/01/17 04:38:46;;;;;;;;;;;;;;;22.88;32.88;100978.39;104275;1313;61270;-81
2022/01/17 04:41:17;;;;;;;;;;;;;;;22.87;32.90;100971.77;104276;1313;75701;-83
2022/01/17 04:46:34;;;;;;;;;;;;;;;22.86;32.95;100958.56;104059;1318;61297;-83
2022/01/17 04:49:00;;;;;;;;;;;;;;;22.85;33.05;100955.80;104076;1317;61323;-85
2022/01/17 04:51:28;;;;;;;;;;;;;;;22.84;32.89;100955.53;104041;1318;60250;-84
2022/01/17 04:55:02;;;;;;;;;;;;;;;22.84;32.79;100950.54;104074;1318;61324;-83
2022/01/17 04:57:00;;;;;;;;;;;;;;;22.82;32.84;100949.55;103113;1324;61445;-82
2022/01/17 04:59:46;;;;;;;;;;;;;;;22.82;33.11;100948.65;103832;1319;71627;-84
2022/01/17 05:02:21;;;;;;;;;;;;;;;22.82;32.77;100943.49;103416;1320;61365;-85
2022/01/17 05:04:47;;;;;;;;;;;;;;;22.82;32.74;100936.31;103847;1319;61314;-83
2022/01/17 05:07:18;;;;;;;;;;;;;;;22.82;32.75;100924.48;103646;1319;61446;-84
2022/01/17 05:09:47;;;;;;;;;;;;;;;22.82;32.75;100922.55;103559;1319;71870;-82
2022/01/17 05:12:20;;;;;;;;;;;;;;;22.81;32.92;100909.96;103851;1318;75659;-83
2022/01/17 05:14:55;;;;;;;;;;;;;;;22.82;32.88;100908.70;103434;1319;61287;-85
2022/01/17 05:17:38;;;;;;;;;;;;;;;22.81;32.76;100906.23;103760;1318;60587;-82
2022/01/17 05:20:04;;;;;;;;;;;;;;;22.79;32.71;100902.05;103533;1319;73836;-83
2022/01/17 05:22:32;;;;;;;;;;;;;;;22.77;32.72;100900.98;103372;1319;75689;-83
2022/01/17 05:25:21;;;;;;;;;;;;;;;22.73;32.56;100901.43;104123;1314;61179;-83
2022/01/17 05:27:51;;;;;;;;;;;;;;;22.69;32.30;100912.36;104060;1314;61455;-79
2022/01/17 05:30:17;;;;;;;;;;;;;;;22.65;32.25;100910.01;104113;1314;59467;-82
2022/01/17 05:32:51;;;;;;;;;;;;;;;22.60;31.97;100910.31;104064;1314;61203;-82
2022/01/17 05:35:20;;;;;;;;;;;;;;;22.56;31.77;100910.79;104103;1314;61318;-81
2022/01/17 05:37:46;;;;;;;;;;;;;;;22.52;31.68;100917.36;103948;1314;61171;-81
2022/01/17 05:40:14;;;;;;;;;;;;;;;22.50;31.45;100914.52;103966;1313;73801;-81
2022/01/17 05:42:48;;;;;;;;;;;;;;;22.47;31.38;100917.58;104017;1314;74872;-83
2022/01/17 05:45:16;;;;;;;;;;;;;;;22.44;31.13;100923.16;103822;1314;61277;-80
2022/01/17 05:47:41;;;;;;;;;;;;;;;22.42;31.04;100916.72;103707;1314;60704;-80
2022/01/17 05:50:07;;;;;;;;;;;;;;;22.39;30.90;100918.51;103932;1314;61326;-80
2022/01/17 05:52:33;;;;;;;;;;;;;;;22.37;30.69;100929.08;103668;1315;59475;-80
2022/01/17 05:54:58;;;;;;;;;;;;;;;22.34;30.55;100928.92;103580;1314;60165;-81
2022/01/17 05:57:24;;;;;;;;;;;;;;;22.30;30.55;100927.09;103978;1314;60500;-80
2022/01/17 05:59:49;;;;;;;;;;;;;;;22.27;30.36;100929.60;103834;1313;61225;-80
2022/01/17 06:02:14;;;;;;;;;;;;;;;22.24;30.17;100917.33;103692;1314;59479;-80
2022/01/17 06:04:40;;;;;;;;;;;;;;;22.19;30.23;100908.68;103642;1314;60005;-81
2022/01/17 06:07:05;;;;;;;;;;;;;;;22.17;30.32;100902.24;103588;1314;61380;-81
2022/01/17 06:09:35;;;;;;;;;;;;;;;22.15;30.13;100895.54;103655;1314;60184;-81
2022/01/17 06:12:01;;;;;;;;;;;;;;;22.15;29.99;100891.11;103841;1314;61439;-80
2022/01/17 06:14:26;;;;;;;;;;;;;;;22.15;29.84;100884.83;103979;1314;61075;-81
2022/01/17 06:16:52;;;;;;;;;;;;;;;22.15;29.73;100879.63;103839;1314;61373;-79
2022/01/17 06:19:17;;;;;;;;;;;;;;;22.15;29.79;100884.05;103780;1314;61314;-81
2022/01/17 06:21:43;;;;;;;;;;;;;;;22.17;29.66;100884.52;103915;1314;60197;-81
2022/01/17 06:24:09;;;;;;;;;;;;;;;22.18;29.58;100880.80;103900;1314;61519;-79
2022/01/17 06:26:38;;;;;;;;;;;;;;;22.22;29.68;100870.32;104106;1314;59380;-81
2022/01/17 06:29:04;;;;;;;;;;;;;;;22.25;29.58;100869.86;103800;1314;75694;-80
2022/01/17 06:31:29;;;;;;;;;;;;;;;22.30;29.44;100861.13;103718;1314;61333;-80
2022/01/17 06:33:55;;;;;;;;;;;;;;;22.34;29.52;100850.94;103618;1314;61519;-80
2022/01/17 06:36:20;;;;;;;;;;;;;;;22.38;29.48;100849.79;103500;1315;61446;-80
2022/01/17 06:38:45;;;;;;;;;;;;;;;22.41;29.46;100851.29;103456;1316;61767;-80
2022/01/17 06:41:11;;;;;;;;;;;;;;;22.45;29.68;100850.84;103501;1314;75332;-80
2022/01/17 06:43:36;;;;;;;;;;;;;;;22.49;29.47;100849.65;103662;1315;61767;-80
2022/01/17 06:46:02;;;;;;;;;;;;;;;22.52;29.82;100845.63;103571;1315;60886;-79
2022/01/17 06:48:28;;;;;;;;;;;;;;;22.55;29.70;100845.56;103649;1314;61299;-80
2022/01/17 06:50:53;;;;;;;;;;;;;;;22.58;29.75;100837.81;103459;1315;61120;-81
2022/01/17 06:53:19;;;;;;;;;;;;;;;22.61;29.81;100834.74;103320;1316;74378;-80
2022/01/17 06:55:45;;;;;;;;;;;;;;;22.63;29.87;100827.80;103829;1315;59640;-80
2022/01/17 06:58:10;;;;;;;;;;;;;;;22.57;29.74;100814.05;103746;1316;61550;-79
2022/01/17 07:00:36;;;;;;;;;;;;;;;22.49;29.82;100807.85;103970;1314;61351;-80
2022/01/17 07:03:01;;;;;;;;;;;;;;;22.43;30.01;100816.18;103877;1314;61572;-79
2022/01/17 07:05:27;;;;;;;;;;;;;;;22.36;30.16;100806.35;103390;1316;61263;-80
2022/01/17 07:07:53;;;;;;;;;;;;;;;22.33;30.12;100802.23;103563;1314;61336;-79
2022/01/17 07:10:18;;;;;;;;;;;;;;;22.34;30.19;100801.10;103608;1314;61395;-79
2022/01/17 07:12:44;;;;;;;;;;;;;;;22.36;30.12;100812.84;103357;1315;61427;-79
2022/01/17 07:15:09;;;;;;;;;;;;;;;22.38;30.12;100804.58;103430;1314;61367;-79
2022/01/17 07:17:34;;;;;;;;;;;;;;;22.42;30.10;100793.37;103513;1314;61359;-79
2022/01/17 07:20:00;;;;;;;;;;;;;;;22.45;30.37;100794.23;103490;1314;61340;-79
2022/01/17 07:22:27;;;;;;;;;;;;;;;22.47;30.27;100786.48;103630;1314;61346;-79
2022/01/17 07:24:54;;;;;;;;;;;;;;;22.51;30.26;100787.84;104304;1315;59477;-79
2022/01/17 07:27:19;;;;;;;;;;;;;;;22.54;30.38;100787.95;103633;1316;61421;-79
2022/01/17 07:29:45;;;;;;;;;;;;;;;22.56;30.50;100795.86;103465;1314;61544;-79
2022/01/17 07:32:10;;;;;;;;;;;;;;;22.57;30.65;100791.63;103336;1315;59935;-79
2022/01/17 07:34:36;;;;;;;;;;;;;;;22.56;30.45;100771.81;103610;1312;61375;-80
2022/01/17 07:37:29;;;;;;;;;;;;;;;22.52;30.55;100757.75;103560;1315;61350;-80
2022/01/17 07:39:54;;;;;;;;;;;;;;;22.46;30.35;100769.74;102979;1320;75911;-80
2022/01/17 07:42:20;;;;;;;;;;;;;;;22.41;30.24;100789.62;102920;1320;61316;-79
2022/01/17 07:44:53;;;;;;;;;;;;;;;22.36;30.12;100821.75;103285;1320;61080;-79
2022/01/17 07:47:25;;;;;;;;;;;;;;;22.33;30.18;100854.83;103783;1319;72852;-79
2022/01/17 07:49:51;;;;;;;;;;;;;;;22.32;30.23;100867.44;103054;1319;74830;-80
2022/01/17 07:52:17;;;;;;;;;;;;;;;22.32;30.16;100870.95;103156;1313;61740;-78
2022/01/17 07:54:44;;;;;;;;;;;;;;;22.34;30.09;100881.02;103507;1315;61284;-80
2022/01/17 07:57:09;;;;;;;;;;;;;;;22.36;30.13;100854.95;103775;1316;61354;-79
2022/01/17 07:59:35;;;;;;;;;;;;;;;22.32;30.15;100828.90;103293;1314;61423;-80
2022/01/17 08:02:01;;;;;;;;;;;;;;;22.23;30.16;100811.40;103756;1315;60068;-79
2022/01/17 08:04:26;;;;;;;;;;;;;;;22.13;30.18;100786.58;103786;1313;61419;-83
2022/01/17 08:06:52;;;;;;;;;;;;;;;22.06;30.39;100767.48;103940;1313;61461;-79
2022/01/17 08:09:21;;;;;;;;;;;;;;;22.07;30.31;100768.90;103639;1313;72828;-78
2022/01/17 08:11:49;;;;;;;;;;;;;;;22.09;30.33;100787.17;104694;1313;74699;-79
2022/01/17 08:14:15;;;;;;;;;;;;;;;22.14;30.39;100818.97;104731;1313;61351;-80
2022/01/17 08:16:40;;;;;;;;;;;;;;;22.18;30.33;100873.46;104256;1308;60199;-80
2022/01/17 08:19:05;;;;;;;;;;;;;;;22.24;30.57;100915.14;104364;1308;61301;-79
2022/01/17 08:21:31;;;;;;;;;;;;;;;22.29;30.69;100950.45;103965;1308;61304;-79
2022/01/17 08:23:59;;;;;;;;;;;;;;;22.34;30.51;100954.23;104249;1306;61354;-78
2022/01/17 08:26:25;;;;;;;;;;;;;;;22.38;30.67;100935.13;104187;1306;61591;-79
2022/01/17 08:28:52;;;;;;;;;;;;;;;22.41;30.73;100896.48;104175;1306;61365;-79
2022/01/17 08:31:18;;;;;;;;;;;;;;;22.45;30.80;100895.69;105098;1307;59275;-78
2022/01/17 08:33:43;;;;;;;;;;;;;;;22.47;30.79;100883.71;103829;1306;61307;-79
2022/01/17 08:36:11;;;;;;;;;;;;;;;22.50;30.75;100833.27;103746;1311;61279;-78
2022/01/17 08:38:36;;;;;;;;;;;;;;;22.52;31.01;100811.91;103811;1306;61269;-78
2022/01/17 08:41:02;;;;;;;;;;;;;;;22.55;30.89;100802.05;103857;1308;61322;-78
2022/01/17 08:43:27;;;;;;;;;;;;;;;22.56;31.18;100785.23;104006;1308;61419;-78
2022/01/17 08:45:53;;;;;;;;;;;;;;;22.57;31.22;100788.19;103994;1308;61350;-79
2022/01/17 08:48:18;;;;;;;;;;;;;;;22.59;31.30;100789.85;104114;1306;61182;-79
2022/01/17 08:50:46;;;;;;;;;;;;;;;22.61;31.54;100764.41;104097;1306;64468;-79
2022/01/17 08:53:13;;;;;;;;;;;;;;;22.62;31.38;100753.95;104186;1306;61279;-79
2022/01/17 08:55:39;;;;;;;;;;;;;;;22.63;31.57;100759.60;103972;1307;75237;-79
2022/01/17 08:58:05;;;;;;;;;;;;;;;22.62;31.38;100755.77;104061;1308;61287;-79
2022/01/17 09:00:33;;;;;;;;;;;;;;;22.58;31.34;100733.43;104115;1306;60045;-82
2022/01/17 09:03:01;;;;;;;;;;;;;;;22.53;31.39;100724.92;104399;1307;73080;-82
2022/01/17 09:05:30;;;;;;;;;;;;;;;22.44;31.17;100739.40;104304;1308;74691;-80
2022/01/17 09:07:56;;;;;;;;;;;;;;;22.36;31.16;100735.17;104495;1306;61324;-80
2022/01/17 09:10:21;;;;;;;;;;;;;;;22.28;31.09;100722.81;104409;1306;61300;-81
2022/01/17 09:12:47;;;;;;;;;;;;;;;22.22;30.99;100732.24;104334;1308;59856;-81
2022/01/17 09:15:13;;;;;;;;;;;;;;;22.17;30.72;100738.38;104440;1306;61177;-80
2022/01/17 09:17:39;;;;;;;;;;;;;;;22.13;30.64;100742.09;104561;1306;61272;-81
2022/01/17 09:20:05;;;;;;;;;;;;;;;22.09;30.91;100736.87;104071;1306;61337;-81
2022/01/17 09:22:32;;;;;;;;;;;;;;;22.05;30.87;100725.14;104515;1306;61302;-79
2022/01/17 09:24:57;;;;;;;;;;;;;;;22.01;30.60;100730.67;104469;1306;73815;-79
2022/01/17 09:27:24;;;;;;;;;;;;;;;21.97;30.52;100736.71;104296;1308;61406;-80
2022/01/17 09:29:49;;;;;;;;;;;;;;;21.93;30.69;100734.81;104250;1308;61298;-80
2022/01/17 09:32:15;;;;;;;;;;;;;;;21.90;30.63;100728.21;104443;1306;61318;-80
2022/01/17 09:34:42;;;;;;;;;;;;;;;21.91;30.23;100732.48;104396;1307;61549;-80
2022/01/17 09:37:09;;;;;;;;;;;;;;;21.92;30.27;100729.17;103833;1307;61152;-80
2022/01/17 09:39:35;;;;;;;;;;;;;;;21.95;30.14;100732.19;103894;1306;61370;-80
2022/01/17 09:42:24;;;;;;;;;;;;;;;21.99;30.12;100729.58;103724;1307;61434;-79
2022/01/17 09:44:49;;;;;;;;;;;;;;;22.02;30.09;100729.35;103283;1313;74720;-80
2022/01/17 09:47:16;;;;;;;;;;;;;;;22.03;30.00;100741.62;103681;1313;61344;-79
2022/01/17 09:49:55;;;;;;;;;;;;;;;22.03;29.71;100733.92;104422;1314;59852;-79
2022/01/17 09:54:51;;;;;;;;;;;;;;;22.01;29.55;100724.56;103609;1313;72878;-79
2022/01/17 09:57:18;;;;;;;;;;;;;;;21.99;29.62;100721.15;103650;1312;61425;-79
2022/01/17 09:59:43;;;;;;;;;;;;;;;21.97;29.67;100731.66;103682;1313;61248;-79
2022/01/17 10:02:09;;;;;;;;;;;;;;;21.95;29.36;100735.93;103798;1313;61329;-79
2022/01/17 10:04:35;;;;;;;;;;;;;;;21.93;29.26;100721.75;104468;1314;59897;-78
2022/01/17 10:07:01;;;;;;;;;;;;;;;21.92;29.30;100730.73;104604;1313;59551;-80
2022/01/17 10:09:27;;;;;;;;;;;;;;;21.95;29.50;100736.15;104453;1314;59893;-80
2022/01/17 10:12:11;;;;;;;;;;;;;;;21.98;29.36;100736.42;104666;1312;60696;-80
2022/01/17 10:14:43;;;;;;;;;;;;;;;22.03;29.66;100726.19;104793;1312;61426;-80
2022/01/17 10:17:09;;;;;;;;;;;;;;;22.08;29.63;100715.61;104630;1312;73109;-79
2022/01/17 10:19:35;;;;;;;;;;;;;;;22.13;29.61;100704.63;104899;1312;59815;-81
2022/01/17 10:22:07;;;;;;;;;;;;;;;22.20;29.57;100704.46;104955;1306;59190;-81
2022/01/17 10:30:15;;;;;;;;;;;;;;;22.36;29.57;100697.52;104443;1306;74792;-81
2022/01/17 10:35:28;;;;;;;;;;;;;;;22.46;29.84;100703.02;104355;1307;61474;-81
2022/01/17 10:37:57;;;;;;;;;;;;;;;22.48;29.78;100699.27;104497;1306;72973;-81
2022/01/17 10:40:22;;;;;;;;;;;;;;;22.50;29.90;100696.63;104535;1306;75994;-81
2022/01/17 10:42:48;;;;;;;;;;;;;;;22.52;29.91;100695.54;104437;1306;59489;-80
2022/01/17 10:45:21;;;;;;;;;;;;;;;22.55;29.94;100694.77;104104;1306;61279;-80
2022/01/17 10:47:47;;;;;;;;;;;;;;;22.56;29.99;100692.92;105281;1306;72748;-79
2022/01/17 10:50:13;;;;;;;;;;;;;;;22.56;29.88;100697.77;105142;1306;60521;-80
2022/01/17 10:52:40;;;;;;;;;;;;;;;22.57;29.80;100681.55;105019;1306;59418;-81
2022/01/17 10:55:07;;;;;;;;;;;;;;;22.52;29.86;100675.98;104986;1307;59787;-80
2022/01/17 10:57:34;;;;;;;;;;;;;;;22.41;29.65;100663.58;104769;1306;59400;-83
2022/01/17 10:59:59;;;;;;;;;;;;;;;22.32;29.54;100654.81;104367;1306;74646;-82
2022/01/17 11:02:25;;;;;;;;;;;;;;;22.20;29.47;100660.02;103552;1306;61349;-80
2022/01/17 11:04:50;;;;;;;;;;;;;;;22.18;29.64;100663.60;103611;1308;61376;-79
2022/01/17 11:07:15;;;;;;;;;;;;;;;22.21;29.46;100655.98;103533;1308;61264;-79
2022/01/17 11:09:43;;;;;;;;;;;;;;;22.23;29.57;100643.81;103767;1306;61434;-79
2022/01/17 11:12:14;;;;;;;;;;;;;;;22.29;29.49;100642.65;103659;1306;75626;-79
2022/01/17 11:14:40;;;;;;;;;;;;;;;22.32;29.66;100644.37;103688;1306;61368;-79
2022/01/17 11:17:15;;;;;;;;;;;;;;;22.34;29.37;100634.55;104118;1307;59538;-80
2022/01/17 11:22:28;;;;;;;;;;;;;;;22.41;29.17;100602.61;104374;1306;74929;-80
2022/01/17 11:24:57;;;;;;;;;;;;;;;22.45;29.21;100600.52;104440;1306;61123;-80
2022/01/17 11:27:22;;;;;;;;;;;;;;;22.47;29.26;100592.99;104020;1308;60334;-79
2022/01/17 11:29:48;;;;;;;;;;;;;;;22.48;29.16;100598.50;104070;1308;61301;-80
2022/01/17 11:32:15;;;;;;;;;;;;;;;22.43;29.19;100580.05;104075;1308;61261;-80
2022/01/17 11:34:40;;;;;;;;;;;;;;;22.39;29.08;100576.04;104052;1307;61277;-80
2022/01/17 11:37:05;;;;;;;;;;;;;;;22.36;28.91;100575.59;104058;1308;60088;-80
2022/01/17 11:39:31;;;;;;;;;;;;;;;22.33;28.74;100576.36;104089;1308;61442;-80
2022/01/17 11:41:57;;;;;;;;;;;;;;;22.28;28.88;100574.20;103960;1307;73927;-81
2022/01/17 11:44:32;;;;;;;;;;;;;;;22.21;28.91;100582.10;104056;1308;61272;-83
2022/01/17 11:46:59;;;;;;;;;;;;;;;22.14;28.79;100584.64;104152;1306;61405;-80
2022/01/17 11:49:37;;;;;;;;;;;;;;;22.08;28.73;100578.66;103801;1308;61499;-81
2022/01/17 11:52:07;;;;;;;;;;;;;;;21.94;28.47;100581.60;104135;1307;74221;-80
2022/01/17 11:54:33;;;;;;;;;;;;;;;21.83;28.57;100592.98;104568;1308;76059;-82
2022/01/17 11:57:02;;;;;;;;;;;;;;;21.81;28.31;100599.58;104684;1308;60123;-82
2022/01/17 11:59:38;;;;;;;;;;;;;;;21.81;28.54;100600.17;104565;1306;60656;-80
2022/01/17 12:02:09;;;;;;;;;;;;;;;21.79;28.66;100589.52;104999;1306;73605;-80
2022/01/17 12:04:35;;;;;;;;;;;;;;;21.81;28.68;100574.71;104755;1306;74891;-80
2022/01/17 12:07:00;;;;;;;;;;;;;;;21.80;28.65;100573.34;104569;1307;61268;-80
2022/01/17 12:09:26;;;;;;;;;;;;;;;21.79;28.55;100579.02;104758;1306;59817;-79
2022/01/17 12:12:04;;;;;;;;;;;;;;;21.78;28.40;100578.68;104082;1306;59963;-81
2022/01/17 12:14:33;;;;;;;;;;;;;;;21.78;28.53;100583.70;104218;1306;75699;-80
2022/01/17 12:17:27;;;;;;;;;;;;;;;21.76;28.51;100591.20;104996;1308;60934;-80
2022/01/17 12:20:25;;;;;;;;;;;;;;;21.72;28.45;100596.50;105083;1308;61590;-80
2022/01/17 12:22:57;;;;;;;;;;;;;;;21.72;28.61;100602.29;104616;1314;72651;-80
2022/01/17 12:25:42;;;;;;;;;;;;;;;21.71;28.56;100609.84;104675;1312;74915;-80
2022/01/17 12:28:08;;;;;;;;;;;;;;;21.70;28.55;100606.92;103202;1320;61187;-81
2022/01/17 12:30:40;;;;;;;;;;;;;;;21.69;28.55;100601.02;103173;1320;59967;-80
2022/01/17 12:33:06;;;;;;;;;;;;;;;21.69;28.39;100594.04;103062;1320;73713;-80
2022/01/17 12:35:33;;;;;;;;;;;;;;;21.69;28.42;100582.45;103074;1321;75878;-81
2022/01/17 12:38:06;;;;;;;;;;;;;;;21.68;28.38;100573.90;103081;1320;61769;-82
2022/01/17 12:40:33;;;;;;;;;;;;;;;21.68;28.19;100559.09;103172;1320;62115;-81
2022/01/17 12:43:01;;;;;;;;;;;;;;;21.64;28.33;100534.79;103963;1320;72888;-82
2022/01/17 12:45:53;;;;;;;;;;;;;;;21.64;28.22;100514.03;103641;1320;74677;-80
2022/01/17 12:48:20;;;;;;;;;;;;;;;21.63;28.17;100504.98;102538;1329;61358;-81
2022/01/17 12:50:46;;;;;;;;;;;;;;;21.63;28.22;100502.84;102459;1329;61262;-81
2022/01/17 12:53:13;;;;;;;;;;;;;;;21.63;28.12;100485.33;102540;1329;61307;-81
2022/01/17 12:55:40;;;;;;;;;;;;;;;21.61;28.07;100472.36;103156;1329;60459;-81
2022/01/17 12:58:24;;;;;;;;;;;;;;;21.61;28.08;100473.44;103353;1322;60218;-80
2022/01/17 13:00:51;;;;;;;;;;;;;;;21.62;28.18;100475.73;103786;1320;60320;-81
2022/01/17 13:03:16;;;;;;;;;;;;;;;21.63;28.14;100472.73;103721;1323;59578;-81
2022/01/17 13:05:42;;;;;;;;;;;;;;;21.64;28.24;100459.25;104065;1318;59450;-80
2022/01/17 13:08:07;;;;;;;;;;;;;;;21.66;28.22;100439.93;104407;1316;60138;-80
2022/01/17 13:10:32;;;;;;;;;;;;;;;21.68;28.02;100432.04;104597;1316;59834;-82
2022/01/17 13:12:59;;;;;;;;;;;;;;;21.70;27.92;100426.75;104185;1316;60938;-81
2022/01/17 13:15:24;;;;;;;;;;;;;;;21.73;28.01;100437.19;103817;1316;71867;-81
2022/01/17 13:17:50;;;;;;;;;;;;;;;21.78;27.86;100440.05;103587;1317;61493;-81